createdAt,value
2018-12-31T00:02:32.366Z,8.17
2018-12-31T00:05:02.208Z,9.57
2018-12-31T00:07:32.425Z,8.73
2018-12-31T00:10:02.382Z,10.10
2018-12-31T00:12:32.530Z,9.20
2018-12-31T00:15:03.556Z,9.07
2018-12-31T00:17:33.261Z,9.47
2018-12-31T00:20:02.972Z,10.00
2018-12-31T00:22:32.717Z,8.53
2018-12-31T00:25:02.507Z,9.60
2018-12-31T00:27:32.538Z,8.57
2018-12-31T00:30:02.400Z,10.83
2018-12-31T00:32:32.580Z,11.77
2018-12-31T00:35:02.733Z,9.37
2018-12-31T00:37:32.765Z,8.83
2018-12-31T00:40:02.558Z,9.20
2018-12-31T00:42:32.347Z,9.40
2018-12-31T00:45:02.111Z,9.00
2018-12-31T00:47:32.147Z,9.63
2018-12-31T00:50:02.106Z,8.43
2018-12-31T00:52:32.127Z,8.60
2018-12-31T00:55:02.520Z,9.93
2018-12-31T00:57:32.210Z,7.93
2018-12-31T01:00:01.942Z,7.13
2018-12-31T01:02:31.667Z,11.17
2018-12-31T01:05:01.472Z,8.23
2018-12-31T01:07:31.180Z,9.40
2018-12-31T01:12:52.776Z,7.57
2018-12-31T01:15:22.440Z,8.53
2018-12-31T01:17:52.241Z,8.03
2018-12-31T01:20:22.050Z,7.97
2018-12-31T01:22:55.932Z,6.73
2018-12-31T01:25:25.619Z,8.63
2018-12-31T01:27:55.578Z,7.50
2018-12-31T01:30:26.561Z,8.77
2018-12-31T01:32:56.284Z,7.83
2018-12-31T01:35:26.002Z,10.37
2018-12-31T01:37:56.011Z,8.50
2018-12-31T01:40:26.099Z,8.50
2018-12-31T01:42:57.467Z,10.63
2018-12-31T01:45:27.613Z,10.33
2018-12-31T01:48:00.516Z,6.47
2018-12-31T01:50:30.121Z,11.40
2018-12-31T01:52:59.845Z,13.67
2018-12-31T01:55:29.499Z,11.13
2018-12-31T01:57:59.228Z,9.73
2018-12-31T02:00:28.914Z,11.13
2018-12-31T02:02:58.733Z,11.60
2018-12-31T02:05:28.418Z,12.83
2018-12-31T02:07:58.078Z,12.73
2018-12-31T02:10:27.775Z,10.57
2018-12-31T02:12:57.475Z,10.90
2018-12-31T02:15:27.192Z,9.40
2018-12-31T02:17:56.848Z,13.90
2018-12-31T02:20:26.521Z,11.97
2018-12-31T02:22:56.225Z,12.27
2018-12-31T02:25:25.942Z,9.37
2018-12-31T02:27:55.595Z,10.00
2018-12-31T02:30:25.309Z,9.63
2018-12-31T02:32:54.976Z,10.27
2018-12-31T02:35:24.689Z,10.07
2018-12-31T02:37:54.333Z,9.00
2018-12-31T02:40:24.058Z,10.90
2018-12-31T02:42:53.737Z,10.03
2018-12-31T02:45:23.461Z,10.20
2018-12-31T02:47:53.165Z,11.63
2018-12-31T02:50:22.958Z,11.73
2018-12-31T02:52:52.606Z,9.23
2018-12-31T02:55:22.291Z,9.10
2018-12-31T02:57:51.959Z,10.23
2018-12-31T03:00:22.165Z,9.60
2018-12-31T03:02:51.814Z,8.73
2018-12-31T03:05:21.509Z,8.13
2018-12-31T03:07:51.189Z,9.97
2018-12-31T03:10:20.857Z,8.27
2018-12-31T03:12:50.520Z,7.80
2018-12-31T03:15:20.213Z,7.93
2018-12-31T03:17:49.877Z,7.23
2018-12-31T03:20:19.598Z,7.80
2018-12-31T03:22:49.304Z,9.07
2018-12-31T03:25:19.040Z,8.13
2018-12-31T03:27:48.701Z,7.73
2018-12-31T03:30:18.389Z,8.60
2018-12-31T03:32:48.048Z,6.97
2018-12-31T03:35:17.747Z,8.03
2018-12-31T03:37:47.419Z,7.23
2018-12-31T03:40:17.157Z,7.83
2018-12-31T03:42:46.815Z,8.17
2018-12-31T03:45:16.497Z,7.90
2018-12-31T03:47:46.465Z,8.20
2018-12-31T03:50:16.198Z,7.10
2018-12-31T03:52:45.844Z,7.00
2018-12-31T03:55:15.518Z,7.97
2018-12-31T03:57:45.208Z,7.20
2018-12-31T04:00:14.958Z,7.00
2018-12-31T04:02:44.608Z,6.13
2018-12-31T04:05:14.306Z,5.33
2018-12-31T04:07:43.947Z,7.10
2018-12-31T04:10:13.706Z,6.60
2018-12-31T04:12:43.345Z,5.63
2018-12-31T04:15:13.058Z,6.33
2018-12-31T04:17:42.727Z,5.00
2018-12-31T04:20:12.408Z,5.90
2018-12-31T04:22:42.133Z,6.60
2018-12-31T04:25:11.830Z,6.23
2018-12-31T04:27:41.499Z,6.03
2018-12-31T04:30:11.178Z,5.33
2018-12-31T04:32:40.843Z,6.03
2018-12-31T04:35:10.535Z,5.30
2018-12-31T04:37:40.200Z,5.00
2018-12-31T04:40:09.893Z,5.07
2018-12-31T04:42:39.542Z,6.27
2018-12-31T04:45:09.257Z,4.83
2018-12-31T04:47:40.686Z,4.17
2018-12-31T04:50:10.277Z,4.97
2018-12-31T04:52:39.933Z,4.97
2018-12-31T04:55:09.621Z,6.70
2018-12-31T04:57:39.277Z,4.97
2018-12-31T05:00:09.135Z,4.93
2018-12-31T05:02:38.824Z,4.77
2018-12-31T05:05:08.531Z,5.20
2018-12-31T05:07:38.164Z,5.23
2018-12-31T05:10:07.886Z,5.37
2018-12-31T05:12:37.593Z,5.13
2018-12-31T05:15:07.252Z,5.80
2018-12-31T05:17:36.945Z,4.80
2018-12-31T05:20:06.626Z,5.17
2018-12-31T05:22:36.357Z,5.30
2018-12-31T05:25:06.045Z,5.67
2018-12-31T05:27:35.767Z,4.77
2018-12-31T05:30:05.463Z,4.93
2018-12-31T05:32:35.176Z,4.80
2018-12-31T05:35:04.845Z,5.30
2018-12-31T05:37:34.525Z,4.60
2018-12-31T05:40:04.167Z,5.17
2018-12-31T05:42:33.867Z,5.00
2018-12-31T05:45:03.532Z,4.87
2018-12-31T05:47:33.214Z,4.87
2018-12-31T05:50:02.874Z,4.50
2018-12-31T05:52:32.562Z,4.70
2018-12-31T05:55:02.227Z,4.57
2018-12-31T05:57:31.955Z,4.13
2018-12-31T06:00:01.611Z,4.03
2018-12-31T06:02:31.319Z,5.27
2018-12-31T06:05:01.032Z,4.97
2018-12-31T06:07:30.757Z,4.03
2018-12-31T06:10:00.414Z,5.00
2018-12-31T06:12:30.132Z,3.87
2018-12-31T06:14:59.771Z,4.10
2018-12-31T06:17:29.575Z,4.03
2018-12-31T06:19:59.232Z,3.87
2018-12-31T06:22:28.918Z,3.90
2018-12-31T06:24:58.610Z,3.37
2018-12-31T06:27:28.287Z,3.70
2018-12-31T06:29:57.953Z,4.00
2018-12-31T06:32:27.650Z,3.33
2018-12-31T06:34:57.614Z,3.57
2018-12-31T06:37:27.530Z,3.17
2018-12-31T06:39:57.192Z,3.30
2018-12-31T06:42:26.896Z,2.93
2018-12-31T06:44:56.555Z,3.20
2018-12-31T06:47:26.287Z,5.60
2018-12-31T06:49:55.919Z,2.90
2018-12-31T06:52:25.636Z,2.70
2018-12-31T06:54:55.307Z,3.17
2018-12-31T06:57:24.944Z,3.10
2018-12-31T06:59:54.619Z,4.13
2018-12-31T07:02:24.317Z,3.30
2018-12-31T07:04:54.702Z,2.97
2018-12-31T07:07:24.379Z,3.20
2018-12-31T07:09:54.043Z,2.60
2018-12-31T07:12:23.732Z,3.03
2018-12-31T07:14:53.396Z,2.87
2018-12-31T07:17:23.089Z,3.03
2018-12-31T07:19:52.737Z,3.00
2018-12-31T07:22:22.606Z,3.10
2018-12-31T07:24:52.258Z,2.47
2018-12-31T07:27:21.962Z,2.70
2018-12-31T07:29:51.598Z,2.70
2018-12-31T07:32:21.274Z,3.00
2018-12-31T07:34:50.934Z,2.50
2018-12-31T07:37:20.713Z,2.40
2018-12-31T07:39:50.324Z,2.50
2018-12-31T07:42:20.039Z,2.90
2018-12-31T07:44:49.695Z,2.73
2018-12-31T07:47:19.378Z,2.70
2018-12-31T07:49:49.045Z,2.17
2018-12-31T07:52:18.742Z,2.77
2018-12-31T07:54:48.468Z,3.90
2018-12-31T07:57:18.160Z,3.10
2018-12-31T07:59:47.785Z,2.57
2018-12-31T08:02:17.497Z,2.40
2018-12-31T08:04:47.141Z,2.67
2018-12-31T08:07:16.814Z,2.37
2018-12-31T08:09:46.459Z,2.60
2018-12-31T08:12:16.236Z,2.90
2018-12-31T08:14:45.892Z,2.53
2018-12-31T08:17:15.579Z,3.20
2018-12-31T08:19:45.237Z,2.50
2018-12-31T08:22:14.943Z,2.40
2018-12-31T08:24:44.598Z,2.57
2018-12-31T08:27:14.280Z,2.30
2018-12-31T08:29:43.921Z,2.87
2018-12-31T08:32:13.641Z,2.33
2018-12-31T08:34:43.324Z,2.53
2018-12-31T08:37:13.011Z,2.77
2018-12-31T08:39:42.700Z,2.67
2018-12-31T08:42:12.328Z,2.60
2018-12-31T08:44:42.029Z,3.17
2018-12-31T08:47:11.680Z,2.90
2018-12-31T08:49:41.401Z,3.20
2018-12-31T08:52:11.047Z,2.90
2018-12-31T08:54:40.764Z,2.70
2018-12-31T08:57:10.428Z,2.53
2018-12-31T08:59:40.153Z,3.17
2018-12-31T09:02:09.807Z,2.93
2018-12-31T09:04:39.494Z,2.93
2018-12-31T09:07:09.239Z,3.00
2018-12-31T09:09:38.939Z,2.87
2018-12-31T09:12:08.601Z,2.80
2018-12-31T09:14:39.181Z,2.97
2018-12-31T09:17:08.933Z,2.60
2018-12-31T09:19:38.675Z,7.13
2018-12-31T09:22:08.392Z,2.60
2018-12-31T09:24:44.589Z,2.40
2018-12-31T09:27:09.930Z,1.97
2018-12-31T09:29:39.991Z,1.93
2018-12-31T09:32:10.752Z,2.20
2018-12-31T09:34:40.504Z,2.27
2018-12-31T09:37:10.208Z,2.20
2018-12-31T09:39:39.922Z,2.33
2018-12-31T09:42:09.604Z,3.77
2018-12-31T09:44:39.288Z,2.80
2018-12-31T09:47:08.979Z,3.40
2018-12-31T09:49:38.670Z,2.13
2018-12-31T09:52:08.424Z,2.10
2018-12-31T09:54:38.165Z,2.50
2018-12-31T09:57:07.829Z,2.77
2018-12-31T09:59:37.542Z,2.97
2018-12-31T10:02:07.222Z,2.57
2018-12-31T10:04:36.935Z,2.47
2018-12-31T10:07:06.627Z,3.07
2018-12-31T10:09:36.432Z,2.70
2018-12-31T10:12:06.081Z,2.50
2018-12-31T10:14:35.823Z,2.60
2018-12-31T10:17:05.478Z,2.50
2018-12-31T10:19:35.184Z,2.83
2018-12-31T10:22:04.844Z,2.53
2018-12-31T10:24:34.549Z,2.67
2018-12-31T10:27:04.273Z,2.50
2018-12-31T10:29:36.134Z,2.53
2018-12-31T10:32:05.290Z,2.80
2018-12-31T10:34:35.016Z,2.87
2018-12-31T10:37:04.656Z,3.03
2018-12-31T10:39:34.345Z,2.77
2018-12-31T10:42:04.050Z,2.67
2018-12-31T10:44:33.770Z,2.37
2018-12-31T10:47:03.444Z,3.03
2018-12-31T10:49:33.153Z,3.10
2018-12-31T10:52:02.809Z,4.60
2018-12-31T10:54:33.006Z,2.57
2018-12-31T10:57:02.663Z,3.00
2018-12-31T10:59:32.400Z,2.47
2018-12-31T11:02:02.080Z,2.77
2018-12-31T11:04:31.761Z,3.83
2018-12-31T11:07:01.441Z,2.57
2018-12-31T11:09:31.130Z,2.57
2018-12-31T11:12:00.782Z,2.20
2018-12-31T11:14:30.515Z,2.60
2018-12-31T11:17:00.225Z,2.07
2018-12-31T11:19:29.917Z,3.10
2018-12-31T11:21:59.579Z,2.20
2018-12-31T11:24:29.287Z,2.30
2018-12-31T11:26:58.952Z,2.47
2018-12-31T11:29:28.669Z,2.23
2018-12-31T11:31:58.329Z,2.10
2018-12-31T11:34:28.034Z,2.10
2018-12-31T11:36:57.723Z,2.10
2018-12-31T11:39:27.387Z,1.90
2018-12-31T11:41:58.091Z,1.73
2018-12-31T11:44:27.849Z,1.70
2018-12-31T11:46:57.538Z,1.80
2018-12-31T11:49:27.253Z,1.90
2018-12-31T11:51:57.101Z,1.67
2018-12-31T11:54:26.757Z,1.80
2018-12-31T11:56:56.497Z,1.70
2018-12-31T11:59:26.168Z,1.83
2018-12-31T12:01:55.863Z,2.30
2018-12-31T12:04:25.547Z,1.93
2018-12-31T12:06:55.166Z,2.10
2018-12-31T12:09:25.163Z,1.90
2018-12-31T12:11:54.870Z,1.90
2018-12-31T12:14:24.618Z,2.13
2018-12-31T12:16:54.523Z,1.73
2018-12-31T12:19:24.182Z,2.00
2018-12-31T12:21:53.873Z,1.90
2018-12-31T12:24:23.527Z,2.30
2018-12-31T12:26:53.235Z,3.40
2018-12-31T12:29:22.896Z,2.40
2018-12-31T12:31:52.596Z,2.73
2018-12-31T12:34:22.253Z,2.20
2018-12-31T12:36:51.961Z,2.30
2018-12-31T12:39:21.628Z,2.23
2018-12-31T12:41:51.325Z,2.40
2018-12-31T12:44:20.972Z,2.20
2018-12-31T12:46:50.660Z,2.73
2018-12-31T12:49:20.315Z,2.50
2018-12-31T12:51:50.518Z,2.37
2018-12-31T12:54:20.219Z,2.80
2018-12-31T12:56:49.924Z,2.60
2018-12-31T12:59:19.583Z,2.70
2018-12-31T13:01:49.289Z,2.43
2018-12-31T13:04:19.163Z,4.20
2018-12-31T13:06:48.886Z,2.20
2018-12-31T13:09:18.625Z,2.80
2018-12-31T13:11:48.317Z,2.60
2018-12-31T13:14:17.978Z,2.73
2018-12-31T13:16:47.709Z,2.50
2018-12-31T13:19:17.407Z,2.37
2018-12-31T13:21:47.123Z,2.50
2018-12-31T13:24:16.792Z,2.17
2018-12-31T13:26:47.700Z,2.47
2018-12-31T13:29:17.346Z,2.80
2018-12-31T13:31:47.047Z,2.97
2018-12-31T13:34:16.716Z,2.63
2018-12-31T13:36:46.416Z,2.80
2018-12-31T13:39:16.357Z,3.20
2018-12-31T13:41:46.046Z,3.67
2018-12-31T13:44:15.726Z,2.53
2018-12-31T13:46:45.443Z,3.33
2018-12-31T13:49:15.481Z,3.23
2018-12-31T13:51:45.213Z,3.17
2018-12-31T13:54:15.034Z,2.73
2018-12-31T13:56:45.110Z,2.90
2018-12-31T13:59:14.807Z,3.33
2018-12-31T14:01:44.525Z,3.33
2018-12-31T14:04:15.363Z,3.67
2018-12-31T14:06:45.974Z,3.17
2018-12-31T14:09:15.669Z,2.63
2018-12-31T14:11:45.370Z,3.23
2018-12-31T14:14:15.074Z,3.23
2018-12-31T14:16:44.787Z,3.80
2018-12-31T14:19:14.463Z,3.40
2018-12-31T14:21:44.186Z,3.57
2018-12-31T14:24:13.878Z,3.77
2018-12-31T14:26:43.599Z,3.43
2018-12-31T14:29:13.276Z,3.80
2018-12-31T14:31:42.964Z,3.43
2018-12-31T14:34:12.622Z,3.97
2018-12-31T14:36:42.547Z,3.83
2018-12-31T14:39:14.053Z,3.93
2018-12-31T14:41:44.007Z,3.80
2018-12-31T14:44:13.658Z,3.83
2018-12-31T14:46:43.442Z,3.77
2018-12-31T14:49:13.142Z,3.60
2018-12-31T14:51:43.363Z,3.60
2018-12-31T14:54:14.468Z,4.63
2018-12-31T14:56:44.467Z,3.77
2018-12-31T14:59:14.951Z,4.13
2018-12-31T15:01:45.712Z,4.00
2018-12-31T15:04:16.999Z,3.87
2018-12-31T15:06:46.929Z,4.00
2018-12-31T15:09:17.151Z,3.27
2018-12-31T15:11:47.321Z,3.97
2018-12-31T15:14:17.499Z,4.43
2018-12-31T15:16:47.158Z,5.07
2018-12-31T15:19:16.888Z,4.83
2018-12-31T15:21:46.607Z,4.60
2018-12-31T15:24:16.310Z,4.20
2018-12-31T15:26:46.179Z,5.00
2018-12-31T15:29:15.935Z,3.53
2018-12-31T15:31:45.576Z,4.40
2018-12-31T15:34:15.321Z,4.23
2018-12-31T15:36:44.994Z,4.07
2018-12-31T15:39:14.707Z,3.63
2018-12-31T15:41:44.908Z,4.20
2018-12-31T15:44:14.607Z,4.40
2018-12-31T15:46:44.806Z,4.57
2018-12-31T15:49:14.533Z,4.60
2018-12-31T15:51:44.198Z,4.97
2018-12-31T15:54:13.902Z,4.63
2018-12-31T15:56:43.560Z,4.67
2018-12-31T15:59:13.467Z,4.70
2018-12-31T16:01:43.139Z,4.20
2018-12-31T16:04:12.831Z,4.80
2018-12-31T16:06:42.496Z,3.60
2018-12-31T16:09:12.177Z,4.10
2018-12-31T16:11:41.849Z,4.50
2018-12-31T16:14:11.538Z,4.47
2018-12-31T16:16:41.215Z,4.53
2018-12-31T16:19:10.932Z,4.43
2018-12-31T16:21:40.611Z,4.50
2018-12-31T16:24:10.294Z,4.67
2018-12-31T16:26:39.971Z,4.80
2018-12-31T16:29:09.753Z,4.80
2018-12-31T16:31:39.416Z,4.40
2018-12-31T16:34:09.104Z,6.03
2018-12-31T16:36:38.765Z,5.07
2018-12-31T16:39:09.242Z,5.23
2018-12-31T16:41:38.917Z,5.17
2018-12-31T16:44:08.658Z,5.30
2018-12-31T16:46:38.616Z,5.53
2018-12-31T16:49:08.326Z,5.40
2018-12-31T16:51:38.009Z,5.47
2018-12-31T16:54:07.714Z,5.40
2018-12-31T16:56:37.367Z,5.23
2018-12-31T16:59:07.300Z,5.07
2018-12-31T17:01:36.972Z,5.23
2018-12-31T17:04:06.673Z,5.03
2018-12-31T17:06:36.354Z,5.77
2018-12-31T17:09:08.284Z,4.97
2018-12-31T17:11:38.036Z,5.13
2018-12-31T17:14:07.844Z,5.70
2018-12-31T17:16:38.453Z,5.97
2018-12-31T17:19:08.160Z,5.97
2018-12-31T17:21:37.819Z,6.00
2018-12-31T17:24:07.519Z,5.70
2018-12-31T17:26:37.277Z,6.17
2018-12-31T17:29:07.041Z,5.67
2018-12-31T17:31:36.722Z,6.47
2018-12-31T17:34:06.634Z,5.30
2018-12-31T17:36:36.312Z,5.27
2018-12-31T17:39:09.102Z,5.60
2018-12-31T17:41:38.948Z,5.37
2018-12-31T17:44:08.684Z,6.93
2018-12-31T17:46:38.729Z,5.70
2018-12-31T17:49:08.448Z,5.30
2018-12-31T17:51:38.124Z,5.33
2018-12-31T17:54:07.937Z,6.17
2018-12-31T17:56:37.622Z,5.63
2018-12-31T17:59:07.324Z,5.27
2018-12-31T18:01:36.980Z,6.50
2018-12-31T18:04:06.684Z,7.47
2018-12-31T18:06:36.361Z,5.90
2018-12-31T18:09:07.881Z,5.93
2018-12-31T18:11:37.546Z,6.07
2018-12-31T18:14:07.280Z,6.30
2018-12-31T18:16:36.945Z,5.90
2018-12-31T18:19:06.662Z,5.93
2018-12-31T18:21:36.394Z,6.33
2018-12-31T18:24:06.210Z,5.80
2018-12-31T18:26:35.891Z,5.80
2018-12-31T18:29:05.586Z,5.50
2018-12-31T18:31:35.225Z,6.57
2018-12-31T18:34:05.317Z,6.23
2018-12-31T18:36:35.003Z,5.90
2018-12-31T18:39:06.243Z,5.57
2018-12-31T18:41:35.937Z,5.97
2018-12-31T18:44:05.608Z,7.87
2018-12-31T18:46:37.176Z,6.00
2018-12-31T18:49:06.766Z,6.40
2018-12-31T18:51:36.455Z,6.10
2018-12-31T18:54:06.104Z,6.03
2018-12-31T18:56:35.848Z,6.83
2018-12-31T18:59:05.535Z,5.93
2018-12-31T19:01:35.271Z,5.47
2018-12-31T19:04:04.932Z,5.63
2018-12-31T19:06:34.669Z,6.37
2018-12-31T19:09:05.304Z,7.73
2018-12-31T19:11:34.997Z,6.60
2018-12-31T19:14:04.687Z,8.87
2018-12-31T19:16:34.428Z,6.57
2018-12-31T19:19:04.072Z,7.13
2018-12-31T19:21:34.178Z,7.30
2018-12-31T19:24:03.826Z,6.23
2018-12-31T19:26:33.510Z,6.97
2018-12-31T19:29:03.200Z,6.40
2018-12-31T19:31:32.911Z,6.57
2018-12-31T19:34:03.009Z,6.70
2018-12-31T19:36:32.717Z,7.73
2018-12-31T19:39:02.482Z,6.53
2018-12-31T19:41:32.186Z,6.43
2018-12-31T19:44:01.884Z,7.77
2018-12-31T19:46:32.008Z,5.93
2018-12-31T19:49:01.684Z,6.77
2018-12-31T19:51:31.386Z,6.80
2018-12-31T19:54:01.058Z,8.33
2018-12-31T19:56:30.766Z,8.03
2018-12-31T19:59:00.613Z,6.20
2018-12-31T20:01:30.318Z,6.90
2018-12-31T20:03:59.991Z,7.97
2018-12-31T20:06:29.692Z,8.20
2018-12-31T20:08:59.400Z,7.93
2018-12-31T20:11:29.949Z,7.47
2018-12-31T20:13:59.594Z,7.30
2018-12-31T20:16:29.337Z,8.23
2018-12-31T20:18:58.998Z,8.90
2018-12-31T20:21:28.686Z,9.57
2018-12-31T20:23:58.349Z,8.47
2018-12-31T20:26:28.056Z,8.13
2018-12-31T20:28:57.727Z,8.07
2018-12-31T20:31:27.411Z,7.87
2018-12-31T20:33:57.098Z,8.43
2018-12-31T20:36:27.295Z,7.10
2018-12-31T20:38:57.020Z,7.67
2018-12-31T20:41:26.709Z,8.20
2018-12-31T20:43:56.615Z,7.57
2018-12-31T20:46:26.322Z,8.90
2018-12-31T20:48:56.295Z,10.03
2018-12-31T20:51:25.976Z,8.43
2018-12-31T20:53:55.666Z,8.40
2018-12-31T20:56:25.373Z,10.73
2018-12-31T20:58:55.033Z,9.27
2018-12-31T21:01:25.044Z,9.70
2018-12-31T21:03:54.705Z,10.87
2018-12-31T21:06:24.416Z,10.83
2018-12-31T21:08:55.422Z,9.27
2018-12-31T21:11:26.247Z,8.33
2018-12-31T21:13:56.576Z,14.87
2018-12-31T21:16:26.284Z,10.20
2018-12-31T21:18:56.014Z,9.93
2018-12-31T21:21:25.730Z,10.87
2018-12-31T21:23:55.414Z,11.47
2018-12-31T21:26:25.255Z,11.13
2018-12-31T21:28:54.930Z,10.70
2018-12-31T21:31:24.633Z,10.27
2018-12-31T21:33:54.347Z,12.20
2018-12-31T21:36:24.059Z,9.10
2018-12-31T21:38:54.120Z,11.70
2018-12-31T21:41:23.826Z,10.67
2018-12-31T21:43:53.489Z,11.13
2018-12-31T21:46:23.190Z,10.53
2018-12-31T21:48:52.887Z,10.60
2018-12-31T21:51:22.810Z,10.30
2018-12-31T21:53:52.484Z,12.57
2018-12-31T21:56:22.145Z,8.47
2018-12-31T21:58:52.011Z,11.53
2018-12-31T22:01:21.726Z,9.70
2018-12-31T22:03:51.687Z,9.33
2018-12-31T22:06:21.381Z,10.60
2018-12-31T22:08:51.088Z,10.17
2018-12-31T22:11:20.750Z,9.37
2018-12-31T22:13:50.462Z,10.70
2018-12-31T22:16:41.462Z,9.47
2018-12-31T22:19:11.185Z,10.27
2018-12-31T22:21:40.941Z,10.93
2018-12-31T22:24:11.126Z,10.73
2018-12-31T22:26:40.862Z,10.77
2018-12-31T22:29:10.539Z,8.60
2018-12-31T22:31:40.248Z,10.70
2018-12-31T22:34:09.945Z,10.80
2018-12-31T22:36:40.126Z,8.93
2018-12-31T22:39:09.794Z,10.67
2018-12-31T22:41:39.467Z,9.57
2018-12-31T22:44:09.206Z,9.27
2018-12-31T22:46:38.880Z,10.10
2018-12-31T22:49:08.732Z,10.27
2018-12-31T22:51:38.397Z,10.20
2018-12-31T22:54:08.110Z,9.90
2018-12-31T22:56:37.777Z,10.53
2018-12-31T22:59:07.505Z,9.60
2018-12-31T23:01:37.193Z,9.77
2018-12-31T23:04:06.897Z,8.03
2018-12-31T23:06:37.270Z,18.50
2018-12-31T23:09:10.787Z,19.23
2018-12-31T23:11:40.852Z,15.87
2018-12-31T23:14:10.605Z,12.53
2018-12-31T23:16:41.937Z,11.80
2018-12-31T23:19:11.654Z,14.27
2018-12-31T23:21:41.355Z,10.20
2018-12-31T23:24:11.086Z,10.97
2018-12-31T23:26:40.838Z,11.83
2018-12-31T23:29:10.574Z,10.70
2018-12-31T23:31:40.267Z,11.67
2018-12-31T23:34:09.968Z,9.90
2018-12-31T23:36:39.817Z,9.40
2018-12-31T23:39:09.573Z,10.57
2018-12-31T23:41:39.222Z,10.37
2018-12-31T23:44:08.935Z,10.43
2018-12-31T23:46:38.631Z,9.80
2018-12-31T23:49:08.365Z,9.80
2018-12-31T23:51:38.025Z,11.37
2018-12-31T23:54:07.733Z,10.20
2018-12-31T23:56:37.420Z,9.13
2018-12-31T23:59:07.128Z,9.33
